createdAt,value
2022-09-20T00:00:13.662Z,62.42
2022-09-20T00:01:21.083Z,62.40
2022-09-20T00:02:22.632Z,62.41
2022-09-20T00:03:24.119Z,62.29
2022-09-20T00:04:25.570Z,62.39
2022-09-20T00:05:27.102Z,62.64
2022-09-20T00:06:29.326Z,62.54
2022-09-20T00:07:30.910Z,62.62
2022-09-20T00:08:32.440Z,62.59
2022-09-20T00:09:33.986Z,62.72
2022-09-20T00:10:39.378Z,62.50
2022-09-20T00:11:40.874Z,62.65
2022-09-20T00:12:42.344Z,62.46
2022-09-20T00:13:44.381Z,62.56
2022-09-20T00:14:45.886Z,62.41
2022-09-20T00:15:47.354Z,62.33
2022-09-20T00:16:48.859Z,62.38
2022-09-20T00:17:50.655Z,62.56
2022-09-20T00:18:52.607Z,62.37
2022-09-20T00:19:54.096Z,62.54
2022-09-20T00:20:55.578Z,62.45
2022-09-20T00:21:57.023Z,62.52
2022-09-20T00:22:58.531Z,62.67
2022-09-20T00:24:00.061Z,62.61
2022-09-20T00:25:01.603Z,62.71
2022-09-20T00:26:03.457Z,62.58
2022-09-20T00:27:04.954Z,62.67
2022-09-20T00:28:06.523Z,62.68
2022-09-20T00:29:07.981Z,62.74
2022-09-20T00:30:09.769Z,62.70
2022-09-20T00:31:11.265Z,62.57
2022-09-20T00:32:12.789Z,62.55
2022-09-20T00:33:14.368Z,62.66
2022-09-20T00:34:50.933Z,62.83
2022-09-20T00:35:52.406Z,62.73
2022-09-20T00:36:53.986Z,62.87
2022-09-20T00:37:55.510Z,62.98
2022-09-20T00:38:57.564Z,62.92
2022-09-20T00:39:59.042Z,63.00
2022-09-20T00:41:00.538Z,62.99
2022-09-20T00:42:02.068Z,62.85
2022-09-20T00:43:03.530Z,62.90
2022-09-20T00:44:23.627Z,62.92
2022-09-20T00:45:28.769Z,62.99
2022-09-20T00:46:33.326Z,62.88
2022-09-20T00:47:44.693Z,62.91
2022-09-20T00:48:46.369Z,63.03
2022-09-20T00:49:48.139Z,63.02
2022-09-20T00:50:51.132Z,63.11
2022-09-20T00:51:55.362Z,63.07
2022-09-20T00:53:17.091Z,63.26
2022-09-20T00:54:20.506Z,63.18
2022-09-20T00:55:22.285Z,63.23
2022-09-20T00:56:27.947Z,63.31
2022-09-20T00:57:35.147Z,63.22
2022-09-20T00:58:37.953Z,63.27
2022-09-20T00:59:40.226Z,63.26
2022-09-20T01:00:42.294Z,63.24
2022-09-20T01:01:44.420Z,63.40
2022-09-20T01:02:46.952Z,63.55
2022-09-20T01:03:48.977Z,63.52
2022-09-20T01:04:50.431Z,63.80
2022-09-20T01:05:52.070Z,63.69
2022-09-20T01:06:54.015Z,63.60
2022-09-20T01:07:55.470Z,63.61
2022-09-20T01:08:57.291Z,63.47
2022-09-20T01:09:58.726Z,63.46
2022-09-20T01:11:00.223Z,63.51
2022-09-20T01:12:02.479Z,63.51
2022-09-20T01:13:05.655Z,63.64
2022-09-20T01:14:07.254Z,63.59
2022-09-20T01:15:08.998Z,63.49
2022-09-20T01:16:10.470Z,63.58
2022-09-20T01:17:11.994Z,63.56
2022-09-20T01:18:13.487Z,63.57
2022-09-20T01:19:35.686Z,63.45
2022-09-20T01:20:38.880Z,63.31
2022-09-20T01:21:40.415Z,63.11
2022-09-20T01:22:47.706Z,63.16
2022-09-20T01:23:49.130Z,63.13
2022-09-20T01:25:00.407Z,63.41
2022-09-20T01:26:20.248Z,63.25
2022-09-20T01:27:23.415Z,63.34
2022-09-20T01:28:25.078Z,63.25
2022-09-20T01:29:29.596Z,63.42
2022-09-20T01:30:38.005Z,63.14
2022-09-20T01:31:42.028Z,63.30
2022-09-20T01:33:02.676Z,63.40
2022-09-20T01:34:05.315Z,63.53
2022-09-20T01:35:06.990Z,63.46
2022-09-20T01:36:08.516Z,63.33
2022-09-20T01:37:28.527Z,63.32
2022-09-20T01:38:34.407Z,63.27
2022-09-20T01:39:36.681Z,63.28
2022-09-20T01:40:50.309Z,63.24
2022-09-20T01:41:51.986Z,63.29
2022-09-20T01:42:58.905Z,63.15
2022-09-20T01:44:10.063Z,63.17
2022-09-20T01:45:17.509Z,63.23
2022-09-20T01:46:22.329Z,62.94
2022-09-20T01:47:42.569Z,63.04
2022-09-20T01:48:44.248Z,62.97
2022-09-20T01:49:51.621Z,63.17
2022-09-20T01:51:05.275Z,63.09
2022-09-20T01:52:15.734Z,63.04
2022-09-20T01:53:35.701Z,63.10
2022-09-20T01:54:37.129Z,62.98
2022-09-20T01:55:49.411Z,62.98
2022-09-20T01:56:57.501Z,62.75
2022-09-20T01:58:17.505Z,62.69
2022-09-20T01:59:24.472Z,62.84
2022-09-20T02:00:26.646Z,62.72
2022-09-20T02:01:46.707Z,62.64
2022-09-20T02:03:00.107Z,62.87
2022-09-20T02:04:14.035Z,62.79
2022-09-20T02:05:15.437Z,62.62
2022-09-20T02:06:16.850Z,62.63
2022-09-20T02:07:21.122Z,62.64
2022-09-20T02:08:37.475Z,62.60
2022-09-20T02:09:46.383Z,62.65
2022-09-20T02:10:47.930Z,62.52
2022-09-20T02:12:08.246Z,62.60
2022-09-20T02:13:29.295Z,62.58
2022-09-20T02:14:43.022Z,62.46
2022-09-20T02:15:47.532Z,62.38
2022-09-20T02:16:54.705Z,62.46
2022-09-20T02:18:02.035Z,62.34
2022-09-20T02:19:15.518Z,62.49
2022-09-20T02:20:35.858Z,62.41
2022-09-20T02:21:37.483Z,62.36
2022-09-20T02:22:41.581Z,62.30
2022-09-20T02:23:52.668Z,62.44
2022-09-20T02:25:03.396Z,62.41
2022-09-20T02:26:05.069Z,62.36
2022-09-20T02:27:24.901Z,62.24
2022-09-20T02:28:45.080Z,62.32
2022-09-20T02:29:48.718Z,62.47
2022-09-20T02:30:50.142Z,62.32
2022-09-20T02:31:55.857Z,62.20
2022-09-20T02:33:06.667Z,62.34
2022-09-20T02:34:26.595Z,62.40
2022-09-20T02:35:54.383Z,62.46
2022-09-20T02:36:59.368Z,62.24
2022-09-20T02:38:07.021Z,62.29
2022-09-20T02:39:20.712Z,62.33
2022-09-20T02:40:40.786Z,62.41
2022-09-20T02:41:55.662Z,62.28
2022-09-20T02:43:15.908Z,62.36
2022-09-20T02:44:28.834Z,62.31
2022-09-20T02:45:34.359Z,62.51
2022-09-20T02:46:35.808Z,62.41
2022-09-20T02:47:37.934Z,62.36
2022-09-20T02:48:43.502Z,62.26
2022-09-20T02:50:13.845Z,62.42
2022-09-20T02:51:21.386Z,62.49
2022-09-20T02:52:28.071Z,62.25
2022-09-20T02:53:48.060Z,62.34
2022-09-20T02:55:00.894Z,62.41
2022-09-20T02:56:08.722Z,62.27
2022-09-20T02:57:26.724Z,62.35
2022-09-20T02:58:31.115Z,62.34
2022-09-20T02:59:35.716Z,62.46
2022-09-20T03:00:42.283Z,62.38
2022-09-20T03:01:52.708Z,62.25
2022-09-20T03:03:08.839Z,62.34
2022-09-20T03:04:10.349Z,62.30
2022-09-20T03:05:26.052Z,62.30
2022-09-20T03:06:30.211Z,62.32
2022-09-20T03:07:37.343Z,62.30
2022-09-20T03:08:57.411Z,62.37
2022-09-20T03:10:15.336Z,62.26
2022-09-20T03:11:27.434Z,62.36
2022-09-20T03:12:37.942Z,62.49
2022-09-20T03:13:42.531Z,62.47
2022-09-20T03:14:49.955Z,62.36
2022-09-20T03:16:00.518Z,62.44
2022-09-20T03:17:04.635Z,62.60
2022-09-20T03:18:14.941Z,62.75
2022-09-20T03:19:28.466Z,62.75
2022-09-20T03:20:29.924Z,62.77
2022-09-20T03:21:34.407Z,62.73
2022-09-20T03:22:38.648Z,62.69
2022-09-20T03:23:52.237Z,62.64
2022-09-20T03:25:12.323Z,62.85
2022-09-20T03:26:32.333Z,62.95
2022-09-20T03:27:42.130Z,62.93
2022-09-20T03:28:49.577Z,62.94
2022-09-20T03:30:01.007Z,62.88
2022-09-20T03:31:05.549Z,62.94
2022-09-20T03:32:25.895Z,62.92
2022-09-20T03:33:27.318Z,63.00
2022-09-20T03:34:47.599Z,62.89
2022-09-20T03:36:10.951Z,62.99
2022-09-20T03:37:18.511Z,62.80
2022-09-20T03:38:35.334Z,62.93
2022-09-20T03:39:39.710Z,62.94
2022-09-20T03:40:47.387Z,63.00
2022-09-20T03:41:58.040Z,63.00
2022-09-20T03:43:14.858Z,62.82
2022-09-20T03:44:16.281Z,62.93
2022-09-20T03:45:30.377Z,62.81
2022-09-20T03:46:31.830Z,62.93
2022-09-20T03:47:42.861Z,62.82
2022-09-20T03:48:44.400Z,63.14
2022-09-20T03:49:52.998Z,63.25
2022-09-20T03:51:12.848Z,63.19
2022-09-20T03:52:29.923Z,63.25
2022-09-20T03:53:31.396Z,63.34
2022-09-20T03:54:51.818Z,63.73
2022-09-20T03:55:59.047Z,63.70
2022-09-20T03:57:00.615Z,63.74
2022-09-20T03:58:09.181Z,63.58
2022-09-20T03:59:10.756Z,63.87
2022-09-20T04:00:15.155Z,63.81
2022-09-20T04:01:16.681Z,63.79
2022-09-20T04:02:18.227Z,63.96
2022-09-20T04:03:25.076Z,63.96
2022-09-20T04:04:32.381Z,63.85
2022-09-20T04:05:33.841Z,63.79
2022-09-20T04:06:38.050Z,63.81
2022-09-20T04:08:12.445Z,64.05
2022-09-20T04:09:13.873Z,63.90
2022-09-20T04:10:17.128Z,64.00
2022-09-20T04:11:21.355Z,63.83
2022-09-20T04:12:30.821Z,63.72
2022-09-20T04:13:39.572Z,63.68
2022-09-20T04:14:41.545Z,63.79
2022-09-20T04:16:01.395Z,63.76
2022-09-20T04:17:11.855Z,63.78
2022-09-20T04:18:28.361Z,63.76
2022-09-20T04:19:33.187Z,63.90
2022-09-20T04:20:55.443Z,63.77
2022-09-20T04:21:57.534Z,63.89
2022-09-20T04:23:00.702Z,63.79
2022-09-20T04:24:07.933Z,63.95
2022-09-20T04:25:17.465Z,63.79
2022-09-20T04:26:21.235Z,63.93
2022-09-20T04:27:24.034Z,63.92
2022-09-20T04:28:26.924Z,64.06
2022-09-20T04:30:00.829Z,63.98
2022-09-20T04:31:14.333Z,63.83
2022-09-20T04:32:16.121Z,63.83
2022-09-20T04:33:20.917Z,63.96
2022-09-20T04:34:48.800Z,64.01
2022-09-20T04:36:27.677Z,64.24
2022-09-20T04:37:33.463Z,64.02
2022-09-20T04:38:35.795Z,64.26
2022-09-20T04:39:43.052Z,64.32
2022-09-20T04:40:56.358Z,64.06
2022-09-20T04:42:16.692Z,64.31
2022-09-20T04:43:36.762Z,64.37
2022-09-20T04:44:50.135Z,64.41
2022-09-20T04:45:57.941Z,64.26
2022-09-20T04:47:00.014Z,64.45
2022-09-20T04:48:20.279Z,64.46
2022-09-20T04:49:39.454Z,64.54
2022-09-20T04:50:49.714Z,64.38
2022-09-20T04:51:54.390Z,64.56
2022-09-20T04:53:15.221Z,64.46
2022-09-20T04:54:34.794Z,64.62
2022-09-20T04:55:56.137Z,64.49
2022-09-20T04:57:05.695Z,64.60
2022-09-20T04:58:30.506Z,64.64
2022-09-20T04:59:40.876Z,64.61
2022-09-20T05:01:01.054Z,64.86
2022-09-20T05:02:12.621Z,64.88
2022-09-20T05:03:24.558Z,64.93
2022-09-20T05:04:40.561Z,65.02
2022-09-20T05:05:48.027Z,64.94
2022-09-20T05:06:52.507Z,65.11
2022-09-20T05:08:14.245Z,65.08
2022-09-20T05:09:21.894Z,65.32
2022-09-20T05:10:34.962Z,65.34
2022-09-20T05:11:56.594Z,65.21
2022-09-20T05:13:05.349Z,65.30
2022-09-20T05:14:25.275Z,65.34
2022-09-20T05:15:34.188Z,65.42
2022-09-20T05:16:47.029Z,65.35
2022-09-20T05:17:51.901Z,65.49
2022-09-20T05:18:56.419Z,65.65
2022-09-20T05:20:09.978Z,65.34
2022-09-20T05:21:14.604Z,65.57
2022-09-20T05:22:36.339Z,65.63
2022-09-20T05:23:43.995Z,65.38
2022-09-20T05:25:07.329Z,65.65
2022-09-20T05:26:08.961Z,65.83
2022-09-20T05:27:10.973Z,65.58
2022-09-20T05:28:15.609Z,65.78
2022-09-20T05:29:23.354Z,65.65
2022-09-20T05:30:24.807Z,66.00
2022-09-20T05:31:33.909Z,66.08
2022-09-20T05:32:44.675Z,66.12
2022-09-20T05:34:05.829Z,66.00
2022-09-20T05:35:22.795Z,66.28
2022-09-20T05:36:34.681Z,66.36
2022-09-20T05:37:55.469Z,66.28
2022-09-20T05:39:09.302Z,66.43
2022-09-20T05:40:12.050Z,66.40
2022-09-20T05:41:19.721Z,66.55
2022-09-20T05:42:24.625Z,66.56
2022-09-20T05:43:36.000Z,66.58
2022-09-20T05:44:37.441Z,66.61
2022-09-20T05:45:57.867Z,66.51
2022-09-20T05:47:11.679Z,66.51
2022-09-20T05:48:14.196Z,66.48
2022-09-20T05:49:34.537Z,66.57
2022-09-20T05:50:42.249Z,66.80
2022-09-20T05:51:43.906Z,66.60
2022-09-20T05:52:45.510Z,66.78
2022-09-20T05:54:01.564Z,66.62
2022-09-20T05:55:14.630Z,66.72
2022-09-20T05:56:28.526Z,67.01
2022-09-20T05:57:48.865Z,66.89
2022-09-20T05:59:25.927Z,67.02
2022-09-20T06:00:29.760Z,66.81
2022-09-20T06:01:33.991Z,67.29
2022-09-20T06:02:54.238Z,67.27
2022-09-20T06:03:59.712Z,67.33
2022-09-20T06:05:09.895Z,67.46
2022-09-20T06:06:32.758Z,67.24
2022-09-20T06:07:39.354Z,67.57
2022-09-20T06:08:59.634Z,67.48
2022-09-20T06:10:13.389Z,67.44
2022-09-20T06:11:21.978Z,67.33
2022-09-20T06:12:38.603Z,67.58
2022-09-20T06:14:18.254Z,67.46
2022-09-20T06:15:21.500Z,67.81
2022-09-20T06:16:28.521Z,67.65
2022-09-20T06:17:32.920Z,67.67
2022-09-20T06:18:34.384Z,67.62
2022-09-20T06:19:35.783Z,67.51
2022-09-20T06:20:43.067Z,67.47
2022-09-20T06:21:50.486Z,67.36
2022-09-20T06:22:54.430Z,67.27
2022-09-20T06:23:59.027Z,67.43
2022-09-20T06:25:09.728Z,67.53
2022-09-20T06:26:14.872Z,67.73
2022-09-20T06:27:22.021Z,67.71
2022-09-20T06:28:24.544Z,67.60
2022-09-20T06:29:29.718Z,67.43
2022-09-20T06:30:31.723Z,67.29
2022-09-20T06:31:33.227Z,67.40
2022-09-20T06:32:34.763Z,67.50
2022-09-20T06:33:40.475Z,67.46
2022-09-20T06:34:42.027Z,67.39
2022-09-20T06:35:45.456Z,67.35
2022-09-20T06:37:06.940Z,67.32
2022-09-20T06:38:45.398Z,67.30
2022-09-20T06:40:14.611Z,67.34
2022-09-20T06:41:28.155Z,67.32
2022-09-20T06:42:29.724Z,67.34
2022-09-20T06:43:31.586Z,67.24
2022-09-20T06:44:33.047Z,67.33
2022-09-20T06:45:34.770Z,67.29
2022-09-20T06:46:36.309Z,67.10
2022-09-20T06:47:38.902Z,66.86
2022-09-20T06:48:40.495Z,66.86
2022-09-20T06:49:42.466Z,66.91
2022-09-20T06:50:45.401Z,66.76
2022-09-20T06:51:47.149Z,66.85
2022-09-20T06:52:49.281Z,66.95
2022-09-20T06:53:50.803Z,66.96
2022-09-20T06:54:54.166Z,67.01
2022-09-20T06:55:55.626Z,66.79
2022-09-20T06:56:57.259Z,66.88
2022-09-20T06:57:58.751Z,66.34
2022-09-20T06:59:00.218Z,66.28
2022-09-20T07:00:02.337Z,66.41
2022-09-20T07:01:03.898Z,66.25
2022-09-20T07:02:05.474Z,66.33
2022-09-20T07:03:07.163Z,66.32
2022-09-20T07:04:09.723Z,66.59
2022-09-20T07:05:13.719Z,66.61
2022-09-20T07:06:19.794Z,66.30
2022-09-20T07:07:21.395Z,66.68
2022-09-20T07:08:22.938Z,66.63
2022-09-20T07:09:24.363Z,66.89
2022-09-20T07:10:28.057Z,67.24
2022-09-20T07:11:29.872Z,67.21
2022-09-20T07:12:33.977Z,66.92
2022-09-20T07:13:36.146Z,66.76
2022-09-20T07:14:37.735Z,65.94
2022-09-20T07:15:39.222Z,66.10
2022-09-20T07:16:40.784Z,66.26
2022-09-20T07:17:45.254Z,66.78
2022-09-20T07:18:46.935Z,65.71
2022-09-20T07:19:48.399Z,65.02
2022-09-20T07:20:49.953Z,65.44
2022-09-20T07:21:51.460Z,65.50
2022-09-20T07:22:53.680Z,65.71
2022-09-20T07:23:55.283Z,64.88
2022-09-20T07:24:56.819Z,64.59
2022-09-20T07:26:00.709Z,63.39
2022-09-20T07:27:02.737Z,63.38
2022-09-20T07:28:04.272Z,62.92
2022-09-20T07:29:07.799Z,63.06
2022-09-20T07:30:10.401Z,63.08
2022-09-20T07:31:11.882Z,63.33
2022-09-20T07:32:13.386Z,63.18
2022-09-20T07:33:21.552Z,63.09
2022-09-20T07:34:23.042Z,63.19
2022-09-20T07:35:25.151Z,63.25
2022-09-20T07:36:26.602Z,63.05
2022-09-20T07:37:28.105Z,62.71
2022-09-20T07:38:29.584Z,62.41
2022-09-20T07:39:31.059Z,62.58
2022-09-20T07:40:32.641Z,62.60
2022-09-20T07:41:34.137Z,62.91
2022-09-20T07:42:35.576Z,63.08
2022-09-20T07:43:37.134Z,62.83
2022-09-20T07:44:42.293Z,62.43
2022-09-20T07:45:43.734Z,62.26
2022-09-20T07:46:48.040Z,61.91
2022-09-20T07:47:49.785Z,61.97
2022-09-20T07:48:51.424Z,62.14
2022-09-20T07:49:53.074Z,62.11
2022-09-20T07:50:55.422Z,62.41
2022-09-20T07:51:56.965Z,62.25
2022-09-20T07:52:58.474Z,62.37
2022-09-20T07:54:00.026Z,62.43
2022-09-20T07:55:01.520Z,62.12
2022-09-20T07:56:03.110Z,62.24
2022-09-20T07:57:05.681Z,61.85
2022-09-20T07:58:07.170Z,62.21
2022-09-20T07:59:10.227Z,61.73
2022-09-20T08:00:11.843Z,61.72
2022-09-20T08:01:16.165Z,61.75
2022-09-20T08:02:17.753Z,61.46
2022-09-20T08:03:19.881Z,61.57
2022-09-20T08:04:21.326Z,61.88
2022-09-20T08:05:22.760Z,61.54
2022-09-20T08:06:24.291Z,61.64
2022-09-20T08:07:25.714Z,61.58
2022-09-20T08:08:27.570Z,61.85
2022-09-20T08:09:29.012Z,62.02
2022-09-20T08:10:31.069Z,62.27
2022-09-20T08:11:32.606Z,61.87
2022-09-20T08:14:11.334Z,61.69
2022-09-20T08:15:12.843Z,61.56
2022-09-20T08:16:14.742Z,61.62
2022-09-20T08:17:16.393Z,61.89
2022-09-20T08:18:17.886Z,62.51
2022-09-20T08:19:20.567Z,62.99
2022-09-20T08:20:22.029Z,61.08
2022-09-20T08:21:24.050Z,60.50
2022-09-20T08:22:25.533Z,61.18
2022-09-20T08:23:26.999Z,60.36
2022-09-20T08:24:28.499Z,59.42
2022-09-20T08:25:29.963Z,59.68
2022-09-20T08:26:31.725Z,60.33
2022-09-20T08:27:33.303Z,60.86
2022-09-20T08:28:34.781Z,60.79
2022-09-20T08:29:36.470Z,60.57
2022-09-20T08:30:37.898Z,60.41
2022-09-20T08:31:40.206Z,60.35
2022-09-20T08:32:41.918Z,60.65
2022-09-20T08:33:43.466Z,60.53
2022-09-20T08:34:49.360Z,60.31
2022-09-20T08:35:51.007Z,59.86
2022-09-20T08:36:56.511Z,58.60
2022-09-20T08:39:57.150Z,58.70
2022-09-20T08:40:40.965Z,58.59
2022-09-20T08:41:43.826Z,58.36
2022-09-20T08:42:45.367Z,58.70
2022-09-20T08:43:46.891Z,59.11
2022-09-20T08:44:59.998Z,59.07
2022-09-20T08:46:05.488Z,58.49
2022-09-20T08:47:09.885Z,59.13
2022-09-20T08:48:14.441Z,58.61
2022-09-20T08:49:28.159Z,58.87
2022-09-20T08:50:29.603Z,57.47
2022-09-20T08:51:32.554Z,56.94
2022-09-20T08:52:36.915Z,57.83
2022-09-20T08:53:40.354Z,58.31
2022-09-20T08:54:43.525Z,58.46
2022-09-20T08:55:44.975Z,57.79
2022-09-20T08:56:48.282Z,57.91
2022-09-20T08:57:50.678Z,58.32
2022-09-20T08:58:53.190Z,57.97
2022-09-20T08:59:54.775Z,57.01
2022-09-20T09:00:58.242Z,56.52
2022-09-20T09:02:00.029Z,56.29
2022-09-20T09:03:04.350Z,55.96
2022-09-20T09:04:11.699Z,55.29
2022-09-20T09:05:26.359Z,55.66
2022-09-20T09:06:27.867Z,53.86
2022-09-20T09:07:29.306Z,53.97
2022-09-20T09:08:37.560Z,54.33
2022-09-20T09:09:41.264Z,54.28
2022-09-20T09:10:43.575Z,54.06
2022-09-20T09:11:46.211Z,53.58
2022-09-20T09:12:48.821Z,53.28
2022-09-20T09:14:30.150Z,53.48
2022-09-20T09:15:33.085Z,53.05
2022-09-20T09:16:36.276Z,52.53
2022-09-20T09:17:37.959Z,51.68
2022-09-20T09:18:39.767Z,51.63
2022-09-20T09:19:51.380Z,51.69
2022-09-20T09:20:52.923Z,51.90
2022-09-20T09:22:01.484Z,52.57
2022-09-20T09:23:06.806Z,52.23
2022-09-20T09:24:13.804Z,51.51
2022-09-20T09:25:16.917Z,51.62
2022-09-20T09:26:24.554Z,51.62
2022-09-20T09:27:26.431Z,50.59
2022-09-20T09:28:31.646Z,50.98
2022-09-20T09:29:34.980Z,50.02
2022-09-20T09:30:36.581Z,49.52
2022-09-20T09:31:39.662Z,50.09
2022-09-20T09:32:41.345Z,49.97
2022-09-20T09:33:43.287Z,48.94
2022-09-20T09:34:44.737Z,48.70
2022-09-20T09:35:54.824Z,48.82
2022-09-20T09:36:56.575Z,49.18
2022-09-20T09:37:58.995Z,49.74
2022-09-20T09:39:19.433Z,49.82
2022-09-20T09:40:21.127Z,50.07
2022-09-20T09:41:26.554Z,50.15
2022-09-20T09:42:28.917Z,49.60
2022-09-20T09:43:33.010Z,49.55
2022-09-20T09:44:35.505Z,49.57
2022-09-20T09:45:38.608Z,49.53
2022-09-20T09:46:40.348Z,49.25
2022-09-20T09:47:41.822Z,48.82
2022-09-20T09:48:43.456Z,48.96
2022-09-20T09:50:00.346Z,49.18
2022-09-20T09:51:11.218Z,49.23
2022-09-20T09:52:18.125Z,49.44
2022-09-20T09:53:21.492Z,49.82
2022-09-20T09:54:22.950Z,50.06
2022-09-20T09:55:27.242Z,49.99
2022-09-20T09:56:28.710Z,50.36
2022-09-20T09:57:36.583Z,50.01
2022-09-20T09:59:04.358Z,50.84
2022-09-20T10:00:19.471Z,50.23
2022-09-20T10:01:39.538Z,51.46
2022-09-20T10:02:56.375Z,51.53
2022-09-20T10:04:02.526Z,50.44
2022-09-20T10:05:12.115Z,49.94
2022-09-20T10:06:15.187Z,48.93
2022-09-20T10:07:43.073Z,47.92
2022-09-20T10:08:47.323Z,47.71
2022-09-20T10:09:48.890Z,46.84
2022-09-20T10:10:53.474Z,46.34
2022-09-20T10:11:58.681Z,45.28
2022-09-20T10:13:00.143Z,44.08
2022-09-20T10:14:31.128Z,43.83
2022-09-20T10:15:36.054Z,43.46
2022-09-20T10:16:41.424Z,43.53
2022-09-20T10:18:01.725Z,42.65
2022-09-20T10:19:12.602Z,42.67
2022-09-20T10:20:20.298Z,43.75
2022-09-20T10:21:21.747Z,43.78
2022-09-20T10:23:34.455Z,44.30
2022-09-20T10:24:30.953Z,42.12
2022-09-20T10:25:41.195Z,42.62
2022-09-20T10:26:54.706Z,42.29
2022-09-20T10:28:15.100Z,42.78
2022-09-20T10:29:19.350Z,41.34
2022-09-20T10:30:21.395Z,41.44
2022-09-20T10:31:25.753Z,42.68
2022-09-20T10:32:43.219Z,43.32
2022-09-20T10:34:03.621Z,42.31
2022-09-20T10:35:11.738Z,42.35
2022-09-20T10:36:31.540Z,43.76
2022-09-20T10:37:51.467Z,43.01
2022-09-20T10:39:02.062Z,42.32
2022-09-20T10:40:23.952Z,41.46
2022-09-20T10:42:02.820Z,40.31
2022-09-20T10:43:17.006Z,40.05
2022-09-20T10:44:18.811Z,39.00
2022-09-20T10:45:59.185Z,38.11
2022-09-20T10:47:06.948Z,39.20
2022-09-20T10:48:37.623Z,37.95
2022-09-20T10:49:39.014Z,36.83
2022-09-20T10:50:55.103Z,36.94
2022-09-20T10:52:06.396Z,37.92
2022-09-20T10:53:28.110Z,35.67
2022-09-20T10:54:32.495Z,35.33
2022-09-20T10:55:57.002Z,35.73
2022-09-20T10:57:13.662Z,34.83
2022-09-20T10:58:33.863Z,34.86
2022-09-20T10:59:44.240Z,36.06
2022-09-20T11:00:50.796Z,36.60
2022-09-20T11:01:58.195Z,35.97
2022-09-20T11:03:08.938Z,34.70
2022-09-20T11:04:13.825Z,34.27
2022-09-20T11:05:15.230Z,34.27
2022-09-20T11:06:37.980Z,34.31
2022-09-20T11:07:45.239Z,33.98
2022-09-20T11:08:50.755Z,34.31
2022-09-20T11:09:55.405Z,34.77
2022-09-20T11:11:05.845Z,35.13
2022-09-20T11:12:08.495Z,35.56
2022-09-20T11:13:20.127Z,36.05
2022-09-20T11:14:34.643Z,35.92
2022-09-20T11:15:38.831Z,35.32
2022-09-20T11:16:43.295Z,35.19
2022-09-20T11:17:54.018Z,35.70
2022-09-20T11:18:55.599Z,36.16
2022-09-20T11:20:08.022Z,36.29
2022-09-20T11:21:21.959Z,36.67
2022-09-20T11:22:43.691Z,37.21
2022-09-20T11:23:50.015Z,38.88
2022-09-20T11:24:52.710Z,40.61
2022-09-20T11:25:59.014Z,39.62
2022-09-20T11:27:14.848Z,39.78
2022-09-20T11:28:31.046Z,41.28
2022-09-20T11:29:43.946Z,42.58
2022-09-20T11:30:50.118Z,43.09
2022-09-20T11:31:51.773Z,42.42
2022-09-20T11:33:11.682Z,42.88
2022-09-20T11:34:25.839Z,41.65
2022-09-20T11:35:27.264Z,41.67
2022-09-20T11:36:40.963Z,42.45
2022-09-20T11:37:43.679Z,43.03
2022-09-20T11:38:53.496Z,43.30
2022-09-20T11:39:55.326Z,43.21
2022-09-20T11:41:02.159Z,43.04
2022-09-20T11:42:04.342Z,44.19
2022-09-20T11:43:06.442Z,45.07
2022-09-20T11:44:10.011Z,45.97
2022-09-20T11:45:11.791Z,45.68
2022-09-20T11:46:14.093Z,45.79
2022-09-20T11:47:42.897Z,45.41
2022-09-20T11:48:43.897Z,45.15
2022-09-20T11:49:54.492Z,45.23
2022-09-20T11:51:31.576Z,44.70
2022-09-20T11:52:52.913Z,46.32
2022-09-20T11:53:54.329Z,47.15
2022-09-20T11:55:22.095Z,47.44
2022-09-20T11:56:24.887Z,47.21
2022-09-20T11:57:26.402Z,47.41
2022-09-20T11:58:28.086Z,47.00
2022-09-20T11:59:36.468Z,46.67
2022-09-20T12:00:38.823Z,46.54
2022-09-20T12:01:40.907Z,46.60
2022-09-20T12:02:48.854Z,47.04
2022-09-20T12:03:50.940Z,46.71
2022-09-20T12:04:53.461Z,46.52
2022-09-20T12:05:58.787Z,47.31
2022-09-20T12:07:10.342Z,47.41
2022-09-20T12:08:18.592Z,46.98
2022-09-20T12:09:26.586Z,47.59
2022-09-20T12:10:28.771Z,47.39
2022-09-20T12:11:31.483Z,48.92
2022-09-20T12:12:39.586Z,49.40
2022-09-20T12:13:41.922Z,49.04
2022-09-20T12:14:43.512Z,47.93
2022-09-20T12:15:44.983Z,46.91
2022-09-20T12:16:47.301Z,46.56
2022-09-20T12:17:49.659Z,45.67
2022-09-20T12:18:54.295Z,45.89
2022-09-20T12:19:55.742Z,45.76
2022-09-20T12:21:16.509Z,46.04
2022-09-20T12:22:26.918Z,45.60
2022-09-20T12:23:40.865Z,45.50
2022-09-20T12:24:45.500Z,44.86
2022-09-20T12:26:00.454Z,44.85
2022-09-20T12:27:20.544Z,45.43
2022-09-20T12:28:22.022Z,46.65
2022-09-20T12:29:23.469Z,46.96
2022-09-20T12:30:24.952Z,46.72
2022-09-20T12:31:29.454Z,46.76
2022-09-20T12:32:32.318Z,47.08
2022-09-20T12:33:53.775Z,47.04
2022-09-20T12:34:55.314Z,46.89
2022-09-20T12:36:00.253Z,46.63
2022-09-20T12:37:03.435Z,46.75
2022-09-20T12:38:27.765Z,47.02
2022-09-20T12:39:35.127Z,46.89
2022-09-20T12:40:36.823Z,47.03
2022-09-20T12:41:50.616Z,47.17
2022-09-20T12:42:56.767Z,47.14
2022-09-20T12:44:02.685Z,47.24
2022-09-20T12:45:05.423Z,47.23
2022-09-20T12:46:11.862Z,46.99
2022-09-20T12:47:13.609Z,47.53
2022-09-20T12:48:17.982Z,47.62
2022-09-20T12:49:40.931Z,47.70
2022-09-20T12:51:00.973Z,48.65
2022-09-20T12:52:21.219Z,49.06
2022-09-20T12:53:22.663Z,49.08
2022-09-20T12:54:24.776Z,49.44
2022-09-20T12:55:26.708Z,49.98
2022-09-20T12:56:28.827Z,50.25
2022-09-20T12:57:32.222Z,50.69
2022-09-20T12:58:33.614Z,51.17
2022-09-20T12:59:35.097Z,51.32
2022-09-20T13:00:36.819Z,51.12
2022-09-20T13:01:38.888Z,52.16
2022-09-20T13:02:55.982Z,52.37
2022-09-20T13:04:17.364Z,52.46
2022-09-20T13:05:32.218Z,52.28
2022-09-20T13:06:33.881Z,51.78
2022-09-20T13:08:02.886Z,51.65
2022-09-20T13:09:08.590Z,52.16
2022-09-20T13:10:27.112Z,52.08
2022-09-20T13:11:44.830Z,51.51
2022-09-20T13:12:49.490Z,51.82
2022-09-20T13:14:09.037Z,52.07
2022-09-20T13:15:11.592Z,52.25
2022-09-20T13:16:20.138Z,52.37
2022-09-20T13:17:29.917Z,52.58
2022-09-20T13:18:31.421Z,52.34
2022-09-20T13:19:39.134Z,52.92
2022-09-20T13:20:40.622Z,52.75
2022-09-20T13:21:44.458Z,53.39
2022-09-20T13:22:45.943Z,53.28
2022-09-20T13:23:50.892Z,53.52
2022-09-20T13:24:55.159Z,53.94
2022-09-20T13:25:57.642Z,53.78
2022-09-20T13:27:06.373Z,53.75
2022-09-20T13:28:09.678Z,53.62
2022-09-20T13:29:19.251Z,53.47
2022-09-20T13:30:21.763Z,53.88
2022-09-20T13:31:31.575Z,53.84
2022-09-20T13:32:34.555Z,53.38
2022-09-20T13:33:36.094Z,53.12
2022-09-20T13:34:37.611Z,53.13
2022-09-20T13:35:40.199Z,53.43
2022-09-20T13:36:41.656Z,53.26
2022-09-20T13:37:55.497Z,52.77
2022-09-20T13:38:57.446Z,52.46
2022-09-20T13:39:59.405Z,52.82
2022-09-20T13:41:06.294Z,52.57
2022-09-20T13:42:09.161Z,52.28
2022-09-20T13:43:24.649Z,52.19
2022-09-20T13:44:26.567Z,52.79
2022-09-20T13:45:31.902Z,52.39
2022-09-20T13:46:35.493Z,52.35
2022-09-20T13:47:41.003Z,52.64
2022-09-20T13:48:42.809Z,52.27
2022-09-20T13:49:44.291Z,52.03
2022-09-20T13:50:49.082Z,52.28
2022-09-20T13:51:52.921Z,52.63
2022-09-20T13:52:55.339Z,52.41
2022-09-20T13:54:16.718Z,52.41
2022-09-20T13:55:22.211Z,51.98
2022-09-20T13:56:25.565Z,51.14
2022-09-20T13:57:27.580Z,51.61
2022-09-20T13:58:29.586Z,51.41
2022-09-20T13:59:35.342Z,51.10
2022-09-20T14:00:37.931Z,50.56
2022-09-20T14:01:39.695Z,51.02
2022-09-20T14:02:41.158Z,50.00
2022-09-20T14:03:43.937Z,50.02
2022-09-20T14:04:45.474Z,50.48
2022-09-20T14:05:48.035Z,49.50
2022-09-20T14:06:49.880Z,50.03
2022-09-20T14:07:51.344Z,49.62
2022-09-20T14:08:52.805Z,48.06
2022-09-20T14:09:54.598Z,48.29
2022-09-20T14:11:12.164Z,48.84
2022-09-20T14:12:14.174Z,49.52
2022-09-20T14:13:15.674Z,49.05
2022-09-20T14:14:21.396Z,49.19
2022-09-20T14:15:23.604Z,48.81
2022-09-20T14:16:29.043Z,48.94
2022-09-20T14:17:31.185Z,49.43
2022-09-20T14:18:32.700Z,49.60
2022-09-20T14:19:37.172Z,49.62
2022-09-20T14:20:38.769Z,49.27
2022-09-20T14:21:40.216Z,49.17
2022-09-20T14:22:41.721Z,49.30
2022-09-20T14:23:58.090Z,48.90
2022-09-20T14:25:03.333Z,48.27
2022-09-20T14:26:08.317Z,48.00
2022-09-20T14:27:22.040Z,48.28
2022-09-20T14:28:28.040Z,47.79
2022-09-20T14:29:36.033Z,48.09
2022-09-20T14:30:37.575Z,47.44
2022-09-20T14:31:39.075Z,47.74